Thunderstorms From: 26-05-2018 21:24 Until: 27-05-2018 15:00 warning for: Thunderstorms Level: Yellow info button

Although rather usual in this region, locally or potentially dangerous phenomena are expected. (such as local winds, summer thunderstorms, rising streams or high waves) Be aware and pay attention to the latest weather updates, especially if you carry out activities exposed to weather or close to a stream or shoreline. 


Meteo18 Weather Cam more information Meteo18 Weather Cam


warning for Thunderstorms more information blitzortung!


Rain radar more information rain snow radar


Visit our other weather sites:

Template documentation
and downloads

And another site



Weather Underground History page Text

Daily Summary for September 2, 2016 Units:  Metric    English   Both
« Previous Day
Next Day »
Daily Weekly Monthly Yearly Custom
  High: Low: Average:
Temperature: -17.8 °C -9.8 °C -5.1 °C
Dew Point: -17.8 °C -12.5 °C -11.1 °C
Humidity: Humidity % 28 % 53 %
Wind Speed: 0 km/h 0 km/h 4.2 km/h
Wind Gust: 0 km/h - -
Wind:- - SW
Pressure: 0 hPa 34452.6 hPa -
Precipitation: 0 mm    
Historical Graphs
 
 
Tabular Data for September 2, 2016
Time Temperature Dew Point Pressure Wind Wind Speed Wind Gust Humidity Rainfall Rate (Hourly)
-17.8 °C -17.8 °C 0 hPa Calm     Humidity % 0 mm
00:02 -6.8 °C -10.8 °C 34601.5 hPa NW 2.6 km/h 5.1 km/h 63 % 0 mm
00:12 -7 °C -11.2 °C 34601.5 hPa Calm   5.1 km/h 62 % 0 mm
00:17 -7.1 °C -11.1 °C 34591.4 hPa WNW 2.6 km/h 5.1 km/h 63 % 0 mm
00:22 -7.2 °C -11.1 °C 34601.5 hPa Calm   5.1 km/h 64 % 0 mm
00:27 -7.2 °C -11.1 °C 34591.4 hPa Calm   2.6 km/h 64 % 0 mm
00:32 -7.3 °C -11.2 °C 34591.4 hPa Calm   2.6 km/h 64 % 0 mm
00:37 -7.2 °C -10.9 °C 34601.5 hPa Calm     65 % 0 mm
00:42 -7.2 °C -10.9 °C 34601.5 hPa Calm   5.1 km/h 65 % 0 mm
00:47 -7.3 °C -11 °C 34591.4 hPa Calm   5.1 km/h 65 % 0 mm
00:52 -7.3 °C -11 °C 34591.4 hPa NNW 2.6 km/h 5.1 km/h 65 % 0 mm
00:57 -7.2 °C -10.9 °C 34591.4 hPa Calm   2.6 km/h 65 % 0 mm
01:02 -7.3 °C -10.9 °C 34591.4 hPa Calm   2.6 km/h 66 % 0 mm
01:12 -7.4 °C -11 °C 34591.4 hPa Calm     66 % 0 mm
01:17 -7.4 °C -11.1 °C 34591.4 hPa Calm   2.6 km/h 66 % 0 mm
01:22 -7.6 °C -11 °C 34591.4 hPa Calm   5.1 km/h 67 % 0 mm
01:27 -7.6 °C -11 °C 34591.4 hPa Calm   5.1 km/h 67 % 0 mm
01:32 -7.4 °C -10.9 °C 34591.4 hPa Calm   2.6 km/h 67 % 0 mm
01:37 -7.4 °C -11 °C 34591.4 hPa Calm   2.6 km/h 66 % 0 mm
01:42 -7.6 °C -11 °C 34591.4 hPa Calm     67 % 0 mm
01:47 -7.7 °C -11.1 °C 34591.4 hPa Calm     67 % 0 mm
01:52 -7.8 °C -11.1 °C 34591.4 hPa Calm     69 % 0 mm
01:57 -7.9 °C -11.2 °C 34591.4 hPa Calm     69 % 0 mm
02:02 -8.1 °C -11.1 °C 34591.4 hPa Calm     70 % 0 mm
02:07 -8 °C -11.1 °C 34591.4 hPa Calm     70 % 0 mm
02:12 -7.8 °C -11.1 °C 34591.4 hPa Calm     69 % 0 mm
02:17 -8.1 °C -11.1 °C 34591.4 hPa Calm     70 % 0 mm
02:22 -8.3 °C -11.1 °C 34591.4 hPa Calm     72 % 0 mm
02:32 -8.2 °C -11.1 °C 34591.4 hPa Calm     71 % 0 mm
02:37 -8.1 °C -11.1 °C 34591.4 hPa Calm     71 % 0 mm
02:42 -8.1 °C -11.1 °C 34591.4 hPa Calm     71 % 0 mm
02:47 -8.1 °C -11.1 °C 34591.4 hPa Calm     71 % 0 mm
02:52 -8.1 °C -11 °C 34591.4 hPa Calm     71 % 0 mm
02:57 -8 °C -11.1 °C 34591.4 hPa Calm     70 % 0 mm
03:02 -8 °C -11.1 °C 34591.4 hPa Calm     70 % 0 mm
03:07 -8.2 °C -11.2 °C 34577.8 hPa Calm     70 % 0 mm
03:12 -8.4 °C -11.1 °C 34577.8 hPa Calm     73 % 0 mm
03:17 -8.4 °C -11.1 °C 34577.8 hPa Calm     74 % 0 mm
03:22 -8.4 °C -11.1 °C 34577.8 hPa WNW 2.6 km/h 5.1 km/h 74 % 0 mm
03:27 -8.4 °C -11 °C 34577.8 hPa WNW 2.6 km/h 5.1 km/h 74 % 0 mm
03:32 -8.3 °C -11.1 °C 34577.8 hPa Calm   5.1 km/h 73 % 0 mm
03:37 -8.3 °C -11.1 °C 34577.8 hPa Calm   2.6 km/h 73 % 0 mm
03:42 -8.3 °C -11.1 °C 34577.8 hPa Calm   2.6 km/h 73 % 0 mm
03:47 -8.4 °C -11.1 °C 34577.8 hPa Calm   2.6 km/h 73 % 0 mm
03:52 -8.4 °C -11.2 °C 34577.8 hPa Calm   2.6 km/h 73 % 0 mm
03:57 -8.6 °C -11.2 °C 34577.8 hPa Calm   2.6 km/h 74 % 0 mm
04:02 -8.6 °C -11.1 °C 34567.7 hPa Calm     75 % 0 mm
04:12 -8.6 °C -11.1 °C 34567.7 hPa Calm     75 % 0 mm
04:17 -8.6 °C -11.1 °C 34567.7 hPa Calm     75 % 0 mm
04:22 -8.7 °C -11.2 °C 34567.7 hPa Calm     75 % 0 mm
04:32 -8.9 °C -11.2 °C 34567.7 hPa Calm     77 % 0 mm
04:37 -8.9 °C -11.2 °C 34567.7 hPa Calm     77 % 0 mm
04:42 -8.8 °C -11.1 °C 34567.7 hPa NW 2.6 km/h   77 % 0 mm
04:47 -8.7 °C -11 °C 34567.7 hPa NNW 5.1 km/h 7.7 km/h 76 % 0 mm
04:52 -8.6 °C -11.1 °C 34567.7 hPa NNW 5.1 km/h 7.7 km/h 75 % 0 mm
04:57 -8.5 °C -11.1 °C 34567.7 hPa Calm   5.1 km/h 74 % 0 mm
05:02 -8.7 °C -11.1 °C 34567.7 hPa Calm   5.1 km/h 75 % 0 mm
05:12 -8.8 °C -11.2 °C 34567.7 hPa NNW 5.1 km/h 5.1 km/h 76 % 0 mm
05:17 -8.8 °C -11.1 °C 34567.7 hPa North 2.6 km/h 5.1 km/h 77 % 0 mm
05:22 -9 °C -11.2 °C 34567.7 hPa North 2.6 km/h 5.1 km/h 77 % 0 mm
05:32 -9 °C -11.1 °C 34567.7 hPa NNW 2.6 km/h 5.1 km/h 78 % 0 mm
05:37 -8.9 °C -11.2 °C 34567.7 hPa Calm   5.1 km/h 77 % 0 mm
05:42 -9 °C -11.2 °C 34567.7 hPa Calm   5.1 km/h 77 % 0 mm
05:47 -9.1 °C -11.2 °C 34567.7 hPa Calm   5.1 km/h 78 % 0 mm
05:52 -9.2 °C -11.2 °C 34567.7 hPa Calm   2.6 km/h 79 % 0 mm
05:57 -9.3 °C -11.2 °C 34567.7 hPa Calm   2.6 km/h 80 % 0 mm
06:02 -9.3 °C -11.2 °C 34567.7 hPa Calm   2.6 km/h 80 % 0 mm
06:07 -9.3 °C -11.2 °C 34567.7 hPa Calm     80 % 0 mm
06:12 -9.4 °C -11.2 °C 34577.8 hPa Calm     81 % 0 mm
06:17 -9.4 °C -11.2 °C 34567.7 hPa Calm     81 % 0 mm
06:22 -9.4 °C -11.1 °C 34567.7 hPa Calm     82 % 0 mm
06:32 -9.7 °C -11.3 °C 34567.7 hPa Calm     82 % 0 mm
06:37 -9.8 °C -11.4 °C 34577.8 hPa Calm     83 % 0 mm
06:42 -9.8 °C -11.3 °C 34577.8 hPa Calm     84 % 0 mm
06:47 -9.7 °C -11.2 °C 34577.8 hPa Calm     84 % 0 mm
06:57 -9.7 °C -11.3 °C 34577.8 hPa Calm   2.6 km/h 83 % 0 mm
07:02 -9.7 °C -11.3 °C 34577.8 hPa Calm   2.6 km/h 83 % 0 mm
07:07 -9.7 °C -11.3 °C 34577.8 hPa Calm   2.6 km/h 83 % 0 mm
07:12 -9.7 °C -11.3 °C 34577.8 hPa Calm   5.1 km/h 83 % 0 mm
07:17 -9.7 °C -11.3 °C 34577.8 hPa Calm   5.1 km/h 82 % 0 mm
07:22 -9.8 °C -11.4 °C 34577.8 hPa Calm   2.6 km/h 82 % 0 mm
07:37 -9.6 °C -11.2 °C 34577.8 hPa Calm     83 % 0 mm
07:42 -9.5 °C -11.1 °C 34577.8 hPa Calm     83 % 0 mm
07:52 -9.4 °C -11.1 °C 34577.8 hPa Calm   2.6 km/h 82 % 0 mm
07:57 -9.3 °C -11.1 °C 34577.8 hPa Calm   2.6 km/h 81 % 0 mm
08:02 -9.2 °C -11.1 °C 34577.8 hPa Calm   2.6 km/h 80 % 0 mm
08:07 -8.9 °C -10.8 °C 34577.8 hPa Calm   2.6 km/h 80 % 0 mm
08:12 -8.7 °C -10.8 °C 34577.8 hPa Calm     78 % 0 mm
08:17 -8.5 °C -10.8 °C 34567.7 hPa Calm     77 % 0 mm
08:22 -8.2 °C -10.6 °C 34567.7 hPa Calm     76 % 0 mm
08:32 -7.7 °C -10.6 °C 34567.7 hPa Calm   2.6 km/h 71 % 0 mm
08:37 -7.8 °C -10.6 °C 34567.7 hPa Calm   2.6 km/h 72 % 0 mm
08:42 -7.6 °C -10.3 °C 34567.7 hPa Calm   2.6 km/h 73 % 0 mm
08:47 -7.3 °C -10.2 °C 34567.7 hPa Calm     72 % 0 mm
08:52 -7.1 °C -10.1 °C 34567.7 hPa Calm     71 % 0 mm
08:57 -7 °C -10.1 °C 34567.7 hPa Calm   2.6 km/h 70 % 0 mm
09:02 -6.7 °C -10.3 °C 34567.7 hPa Calm   2.6 km/h 66 % 0 mm
09:07 -6.3 °C -10.1 °C 34577.8 hPa Calm   2.6 km/h 65 % 0 mm
09:12 -6 °C -10.3 °C 34567.7 hPa SSE 2.6 km/h 2.6 km/h 61 % 0 mm
09:17 -6.1 °C -10.4 °C 34567.7 hPa ESE 2.6 km/h 7.7 km/h 61 % 0 mm
09:22 -6.2 °C -10.4 °C 34567.7 hPa Calm   10.3 km/h 62 % 0 mm
09:32 -6.1 °C -10.4 °C 34567.7 hPa SW 2.6 km/h 10.3 km/h 61 % 0 mm
09:37 -6.2 °C -10.4 °C 34567.7 hPa SW 5.1 km/h 10.3 km/h 62 % 0 mm
09:42 -6.1 °C -10.3 °C 34577.8 hPa SE 2.6 km/h 10.3 km/h 62 % 0 mm
09:47 -5.9 °C -10.3 °C 34577.8 hPa Calm   12.9 km/h 61 % 0 mm
09:52 -5.9 °C -10.2 °C 34577.8 hPa SSE 2.6 km/h 12.9 km/h 61 % 0 mm
09:57 -5.8 °C -10.3 °C 34577.8 hPa SW 5.1 km/h 12.9 km/h 60 % 0 mm
10:02 -5.8 °C -10.1 °C 34577.8 hPa SSW 12.9 km/h 12.9 km/h 61 % 0 mm
10:07 -5.8 °C -10.3 °C 34577.8 hPa South 5.1 km/h 12.9 km/h 60 % 0 mm
10:12 -5.7 °C -10.2 °C 34577.8 hPa SW 7.7 km/h 15.6 km/h 60 % 0 mm
10:17 -5.6 °C -10.1 °C 34577.8 hPa SW 2.6 km/h 15.6 km/h 60 % 0 mm
10:22 -5.4 °C -9.9 °C 34577.8 hPa South 7.7 km/h 12.9 km/h 60 % 0 mm
10:27 -5.2 °C -10 °C 34577.8 hPa Calm   10.3 km/h 58 % 0 mm
10:32 -5 °C -10 °C 34577.8 hPa Calm   10.3 km/h 57 % 0 mm
10:37 -4.9 °C -9.9 °C 34577.8 hPa East 2.6 km/h 10.3 km/h 57 % 0 mm
10:42 -4.9 °C -9.9 °C 34577.8 hPa SW 5.1 km/h 15.6 km/h 57 % 0 mm
10:47 -4.6 °C -9.9 °C 34577.8 hPa SSW 5.1 km/h 15.6 km/h 55 % 0 mm
10:52 -4.4 °C -9.9 °C 34567.7 hPa South 7.7 km/h 20.8 km/h 54 % 0 mm
11:02 -4.2 °C -10 °C 34567.7 hPa SE 7.7 km/h 20.8 km/h 52 % 0 mm
11:07 -4.1 °C -9.9 °C 34567.7 hPa SE 5.1 km/h 20.8 km/h 52 % 0 mm
11:12 -3.9 °C -9.9 °C 34567.7 hPa Calm   20.8 km/h 51 % 0 mm
11:17 -3.8 °C -9.8 °C 34567.7 hPa ESE 5.1 km/h 15.6 km/h 51 % 0 mm
11:22 -3.8 °C -10 °C 34567.7 hPa SW 10.3 km/h 18.2 km/h 50 % 0 mm
11:27 -3.7 °C -9.9 °C 34567.7 hPa ESE 7.7 km/h 18.2 km/h 50 % 0 mm
11:32 -3.6 °C -10.1 °C 34567.7 hPa SSW 7.7 km/h 18.2 km/h 48 % 0 mm
11:37 -3.4 °C -10 °C 34567.7 hPa South 2.6 km/h 15.6 km/h 48 % 0 mm
11:42 -3.3 °C -10.1 °C 34554.1 hPa SSW 10.3 km/h 15.6 km/h 47 % 0 mm
11:47 -3.2 °C -10 °C 34554.1 hPa SW 5.1 km/h 18.2 km/h 47 % 0 mm
11:52 -3.3 °C -10.1 °C 34554.1 hPa SSW 7.7 km/h 18.2 km/h 47 % 0 mm
11:57 -3.2 °C -9.9 °C 34554.1 hPa South 5.1 km/h 18.2 km/h 47 % 0 mm
12:02 -3 °C -9.8 °C 34554.1 hPa ESE 2.6 km/h 15.6 km/h 47 % 0 mm
12:07 -3 °C -10.2 °C 34554.1 hPa SW 10.3 km/h 15.6 km/h 45 % 0 mm
12:12 -3.1 °C -10.2 °C 34554.1 hPa SSW 10.3 km/h 15.6 km/h 45 % 0 mm
12:17 -2.9 °C -10.3 °C 34554.1 hPa SSE 10.3 km/h 15.6 km/h 44 % 0 mm
12:22 -2.8 °C -10.2 °C 34554.1 hPa East 5.1 km/h 18.2 km/h 44 % 0 mm
12:27 -2.7 °C -10.1 °C 34544 hPa Calm   18.2 km/h 44 % 0 mm
12:32 -2.4 °C -9.9 °C 34544 hPa ESE 10.3 km/h 18.2 km/h 44 % 0 mm
12:42 -2.3 °C -10.6 °C 34544 hPa South 5.1 km/h 20.8 km/h 40 % 0 mm
12:47 -2.4 °C -10.7 °C 34544 hPa SW 12.9 km/h 18.2 km/h 40 % 0 mm
12:52 -2.5 °C -10.5 °C 34544 hPa SW 10.3 km/h 20.8 km/h 41 % 0 mm
12:57 -2.3 °C -10.7 °C 34544 hPa ESE 5.1 km/h 20.8 km/h 39 % 0 mm
13:02 -2.1 °C -10.8 °C 34544 hPa SE 5.1 km/h 20.8 km/h 38 % 0 mm
13:07 -2 °C -10.7 °C 34544 hPa SSE 5.1 km/h 20.8 km/h 38 % 0 mm
13:12 -2 °C -10.5 °C 34544 hPa SSW 10.3 km/h 20.8 km/h 39 % 0 mm
13:17 -2 °C -10.7 °C 34544 hPa Calm   18.2 km/h 38 % 0 mm
13:22 -2.1 °C -11.1 °C 34544 hPa WSW 7.7 km/h 12.9 km/h 37 % 0 mm
13:27 -2 °C -10.9 °C 34533.8 hPa SSW 7.7 km/h 18.2 km/h 37 % 0 mm
13:32 -1.9 °C -10.6 °C 34533.8 hPa West 10.3 km/h 18.2 km/h 38 % 0 mm
13:37 -1.9 °C -10.8 °C 34533.8 hPa SSW 7.7 km/h 20.8 km/h 37 % 0 mm
13:42 -1.8 °C -10.8 °C 34533.8 hPa SW 5.1 km/h 20.8 km/h 37 % 0 mm
13:47 -1.8 °C -10.6 °C 34533.8 hPa SSE 10.3 km/h 20.8 km/h 38 % 0 mm
13:52 -1.7 °C -10.7 °C 34533.8 hPa ENE 10.3 km/h 20.8 km/h 37 % 0 mm
13:57 -1.8 °C -11 °C 34533.8 hPa SW 15.6 km/h 20.8 km/h 36 % 0 mm
14:02 -1.8 °C -11.2 °C 34533.8 hPa NW 7.7 km/h 28.5 km/h 35 % 0 mm
14:12 -1.8 °C -11.2 °C 34520.3 hPa SE 5.1 km/h 25.9 km/h 35 % 0 mm
14:17 -1.8 °C -11.2 °C 34520.3 hPa NW 2.6 km/h 20.8 km/h 35 % 0 mm
14:22 -1.7 °C -11.2 °C 34520.3 hPa SE 2.6 km/h 18.2 km/h 35 % 0 mm
14:27 -1.4 °C -11.4 °C 34520.3 hPa WSW 5.1 km/h 12.9 km/h 33 % 0 mm
14:32 -1.6 °C -11.8 °C 34520.3 hPa West 7.7 km/h 23.3 km/h 32 % 0 mm
14:42 -1.8 °C -11.7 °C 34510.1 hPa West 10.3 km/h 25.9 km/h 33 % 0 mm
14:47 -1.8 °C -11.7 °C 34520.3 hPa WNW 12.9 km/h 25.9 km/h 33 % 0 mm
14:52 -1.6 °C -11.6 °C 34510.1 hPa SW 5.1 km/h 20.8 km/h 33 % 0 mm
14:57 -1.4 °C -11.4 °C 34510.1 hPa SW 12.9 km/h 20.8 km/h 33 % 0 mm
15:02 -1.4 °C -11.4 °C 34510.1 hPa WNW 15.6 km/h 23.3 km/h 33 % 0 mm
15:07 -1.6 °C -11.8 °C 34510.1 hPa WSW 15.6 km/h 33.6 km/h 32 % 0 mm
15:12 -1.7 °C -11.7 °C 34510.1 hPa WSW 10.3 km/h 33.6 km/h 33 % 0 mm
15:17 -1.7 °C -11.7 °C 34510.1 hPa SW 5.1 km/h 25.9 km/h 33 % 0 mm
15:22 -1.6 °C -11.6 °C 34510.1 hPa WNW 7.7 km/h 25.9 km/h 33 % 0 mm
15:27 -1.5 °C -11.4 °C 34496.6 hPa WSW 5.1 km/h 23.3 km/h 33 % 0 mm
15:32 -1.6 °C -11.5 °C 34496.6 hPa WSW 12.9 km/h 23.3 km/h 33 % 0 mm
15:37 -1.5 °C -11.4 °C 34496.6 hPa SW 5.1 km/h 23.3 km/h 33 % 0 mm
15:42 -1.4 °C -11.4 °C 34496.6 hPa WSW 7.7 km/h 23.3 km/h 33 % 0 mm
15:47 -1.2 °C -11.5 °C 34496.6 hPa ESE 2.6 km/h 23.3 km/h 32 % 0 mm
15:52 -1.2 °C -11.4 °C 34496.6 hPa WNW 10.3 km/h 23.3 km/h 32 % 0 mm
15:57 -1.2 °C -11.5 °C 34496.6 hPa SW 28.5 km/h 28.5 km/h 32 % 0 mm
16:02 -1.3 °C -11.6 °C 34486.4 hPa SW 28.5 km/h 28.5 km/h 32 % 0 mm
16:07 -1.2 °C -11.4 °C 34486.4 hPa SSW 12.9 km/h 33.6 km/h 32 % 0 mm
16:12 -1.2 °C -11.7 °C 34486.4 hPa SSW 7.7 km/h 33.6 km/h 31 % 0 mm
16:17 -1.1 °C -11.6 °C 34486.4 hPa South 18.2 km/h 33.6 km/h 31 % 0 mm
16:22 -1.2 °C -11.7 °C 34486.4 hPa SSW 10.3 km/h 25.9 km/h 31 % 0 mm
16:27 -1.2 °C -11.7 °C 34486.4 hPa SW 5.1 km/h 25.9 km/h 31 % 0 mm
16:32 -1.2 °C -11.7 °C 34476.3 hPa SSW 33.6 km/h 33.6 km/h 31 % 0 mm
16:37 -1.2 °C -11.5 °C 34476.3 hPa SSW 20.8 km/h 33.6 km/h 32 % 0 mm
16:42 -1.2 °C -11.7 °C 34476.3 hPa SW 7.7 km/h 33.6 km/h 31 % 0 mm
16:47 -1.2 °C -11.5 °C 34476.3 hPa South 12.9 km/h 33.6 km/h 32 % 0 mm
16:52 -1.1 °C -11.4 °C 34476.3 hPa SW 12.9 km/h 31.1 km/h 32 % 0 mm
16:57 -1.1 °C -11.3 °C 34476.3 hPa West 10.3 km/h 28.5 km/h 32 % 0 mm
17:02 -1 °C -11.8 °C 34476.3 hPa WSW 15.6 km/h 28.5 km/h 30 % 0 mm
17:12 -0.9 °C -11.5 °C 34462.7 hPa SSW 18.2 km/h 36.2 km/h 31 % 0 mm
17:17 -1 °C -11.6 °C 34462.7 hPa WSW 12.9 km/h 31.1 km/h 31 % 0 mm
17:22 -1.1 °C -11.7 °C 34462.7 hPa SW 10.3 km/h 31.1 km/h 31 % 0 mm
17:27 -1.1 °C -11.6 °C 34462.7 hPa WSW 2.6 km/h 31.1 km/h 31 % 0 mm
17:32 -0.9 °C -11.5 °C 34462.7 hPa West 10.3 km/h 23.3 km/h 31 % 0 mm
17:37 -0.9 °C -11.5 °C 34462.7 hPa SSW 5.1 km/h 23.3 km/h 31 % 0 mm
17:42 -1 °C -11.6 °C 34462.7 hPa WSW 10.3 km/h 15.6 km/h 31 % 0 mm
17:47 -0.9 °C -11.7 °C 34462.7 hPa West 12.9 km/h 20.8 km/h 30 % 0 mm
17:52 -0.9 °C -11.8 °C 34462.7 hPa West 7.7 km/h 20.8 km/h 30 % 0 mm
17:57 -0.8 °C -11.7 °C 34462.7 hPa SSE 2.6 km/h 20.8 km/h 30 % 0 mm
18:02 -0.7 °C -11.8 °C 34462.7 hPa WNW 7.7 km/h 20.8 km/h 29 % 0 mm
18:12 -0.7 °C -11.9 °C 34452.6 hPa West 10.3 km/h 20.8 km/h 29 % 0 mm
18:22 -1.1 °C -12.5 °C 34452.6 hPa SW 5.1 km/h 31.1 km/h 28 % 0 mm
18:27 -1.2 °C -12.3 °C 34462.7 hPa WSW 7.7 km/h 31.1 km/h 29 % 0 mm
18:32 -1.3 °C -12.1 °C 34462.7 hPa SW 18.2 km/h 31.1 km/h 30 % 0 mm
18:37 -1.4 °C -12.2 °C 34462.7 hPa SW 5.1 km/h 20.8 km/h 30 % 0 mm
18:42 -1.4 °C -11.9 °C 34462.7 hPa West 5.1 km/h 20.8 km/h 31 % 0 mm
18:47 -1.4 °C -11.9 °C 34462.7 hPa West 5.1 km/h 20.8 km/h 31 % 0 mm
18:52 -1.4 °C -11.9 °C 34462.7 hPa West 10.3 km/h 20.8 km/h 31 % 0 mm
18:57 -1.4 °C -11.9 °C 34462.7 hPa West 5.1 km/h 20.8 km/h 31 % 0 mm
19:02 -1.4 °C -11.9 °C 34462.7 hPa West 5.1 km/h 18.2 km/h 31 % 0 mm
19:07 -1.5 °C -11.7 °C 34462.7 hPa WNW 7.7 km/h 18.2 km/h 32 % 0 mm
19:12 -1.6 °C -11.8 °C 34462.7 hPa NW 10.3 km/h 18.2 km/h 32 % 0 mm
19:17 -1.6 °C -11.8 °C 34462.7 hPa WNW 7.7 km/h 18.2 km/h 32 % 0 mm
19:22 -1.6 °C -11.8 °C 34462.7 hPa WNW 2.6 km/h 18.2 km/h 32 % 0 mm
19:27 -1.6 °C -11.6 °C 34462.7 hPa WNW 12.9 km/h 18.2 km/h 33 % 0 mm
19:32 -1.7 °C -11.6 °C 34462.7 hPa WNW 10.3 km/h 15.6 km/h 33 % 0 mm
19:37 -1.8 °C -11.7 °C 34462.7 hPa WNW 7.7 km/h 15.6 km/h 33 % 0 mm
19:42 -1.8 °C -11.5 °C 34462.7 hPa WNW 12.9 km/h 15.6 km/h 34 % 0 mm
19:47 -2 °C -11.4 °C 34462.7 hPa WNW 5.1 km/h 15.6 km/h 35 % 0 mm
19:52 -2.1 °C -11.5 °C 34462.7 hPa WNW 5.1 km/h 12.9 km/h 35 % 0 mm
19:57 -2.2 °C -11.6 °C 34462.7 hPa Calm   12.9 km/h 35 % 0 mm
20:02 -2.3 °C -11.4 °C 34462.7 hPa WNW 2.6 km/h 10.3 km/h 36 % 0 mm
20:07 -2.4 °C -11.3 °C 34476.3 hPa WNW 5.1 km/h 7.7 km/h 37 % 0 mm
20:12 -2.6 °C -11.5 °C 34476.3 hPa Calm   7.7 km/h 37 % 0 mm
20:17 -2.8 °C -11.4 °C 34476.3 hPa WNW 2.6 km/h 7.7 km/h 38 % 0 mm
20:22 -2.9 °C -11.3 °C 34476.3 hPa WNW 2.6 km/h 7.7 km/h 39 % 0 mm
20:27 -3 °C -11.4 °C 34476.3 hPa Calm   5.1 km/h 39 % 0 mm
20:32 -3.1 °C -11.4 °C 34476.3 hPa WNW 2.6 km/h 7.7 km/h 39 % 0 mm
20:37 -3.2 °C -11.4 °C 34476.3 hPa Calm   7.7 km/h 40 % 0 mm
20:42 -3.4 °C -11.4 °C 34476.3 hPa Calm   7.7 km/h 41 % 0 mm
20:47 -3.7 °C -11.3 °C 34476.3 hPa Calm   5.1 km/h 42 % 0 mm
20:52 -3.9 °C -11.2 °C 34476.3 hPa Calm   2.6 km/h 44 % 0 mm
20:57 -4.1 °C -10.9 °C 34476.3 hPa Calm   2.6 km/h 46 % 0 mm
21:02 -4.2 °C -10.9 °C 34486.4 hPa Calm     47 % 0 mm
21:07 -4.3 °C -11 °C 34486.4 hPa Calm     47 % 0 mm
21:12 -4.4 °C -10.9 °C 34486.4 hPa Calm     48 % 0 mm
21:17 -4.6 °C -11.1 °C 34486.4 hPa Calm     48 % 0 mm
21:22 -4.7 °C -10.9 °C 34486.4 hPa Calm     49 % 0 mm
21:27 -4.8 °C -10.9 °C 34496.6 hPa Calm     50 % 0 mm
21:32 -5.1 °C -11.2 °C 34496.6 hPa WNW 2.6 km/h 2.6 km/h 50 % 0 mm
21:37 -5.1 °C -11.2 °C 34496.6 hPa West 5.1 km/h 5.1 km/h 50 % 0 mm
21:42 -4.9 °C -11 °C 34496.6 hPa West 2.6 km/h 10.3 km/h 50 % 0 mm
21:47 -4.7 °C -11 °C 34496.6 hPa WNW 5.1 km/h 10.3 km/h 49 % 0 mm
21:52 -4.7 °C -10.9 °C 34496.6 hPa Calm   10.3 km/h 49 % 0 mm
21:57 -4.9 °C -11 °C 34496.6 hPa WNW 5.1 km/h 10.3 km/h 50 % 0 mm
22:02 -5.1 °C -11.2 °C 34510.1 hPa WNW 2.6 km/h 7.7 km/h 50 % 0 mm
22:07 -4.9 °C -11.2 °C 34510.1 hPa WNW 2.6 km/h 7.7 km/h 49 % 0 mm
22:12 -4.8 °C -11.3 °C 34510.1 hPa West 5.1 km/h 7.7 km/h 48 % 0 mm
22:17 -4.8 °C -11.4 °C 34510.1 hPa WNW 5.1 km/h 7.7 km/h 47 % 0 mm
22:22 -4.8 °C -11.4 °C 34496.6 hPa WNW 5.1 km/h 7.7 km/h 47 % 0 mm
22:27 -4.8 °C -11.7 °C 34510.1 hPa Calm   7.7 km/h 46 % 0 mm
22:32 -4.8 °C -11.7 °C 34510.1 hPa WNW 7.7 km/h 7.7 km/h 46 % 0 mm
22:37 -4.8 °C -11.8 °C 34510.1 hPa WNW 5.1 km/h 10.3 km/h 45 % 0 mm
22:42 -4.9 °C -11.9 °C 34510.1 hPa West 2.6 km/h 10.3 km/h 45 % 0 mm
22:47 -4.9 °C -11.9 °C 34510.1 hPa WNW 2.6 km/h 10.3 km/h 45 % 0 mm
22:52 -5 °C -12 °C 34496.6 hPa WNW 2.6 km/h 7.7 km/h 45 % 0 mm
22:57 -5.1 °C -12.2 °C 34496.6 hPa WNW 2.6 km/h 5.1 km/h 44 % 0 mm
23:02 -5.1 °C -12.1 °C 34496.6 hPa Calm   5.1 km/h 45 % 0 mm
23:07 -5.2 °C -12.1 °C 34496.6 hPa Calm   5.1 km/h 45 % 0 mm
23:12 -5.2 °C -12 °C 34496.6 hPa Calm   5.1 km/h 46 % 0 mm
23:17 -5.4 °C -11.8 °C 34496.6 hPa Calm   2.6 km/h 48 % 0 mm
23:22 -5.7 °C -11.9 °C 34496.6 hPa Calm     49 % 0 mm
23:27 -5.9 °C -11.9 °C 34496.6 hPa Calm     50 % 0 mm
23:32 -6.1 °C -11.9 °C 34496.6 hPa Calm     51 % 0 mm
23:37 -6.2 °C -12 °C 34496.6 hPa Calm     51 % 0 mm
23:42 -6.2 °C -12 °C 34496.6 hPa Calm     51 % 0 mm
23:47 -6.2 °C -12 °C 34496.6 hPa Calm     51 % 0 mm
23:52 -6.3 °C -12.1 °C 34496.6 hPa Calm     51 % 0 mm
23:57 -6.3 °C -12 °C 34496.6 hPa Calm     52 % 0 mm
Meteo18
Compliments of Weather Underground - 4 mb

Script developed by  Jim McMurry - jmcmurry@mwt.net Adapted for the template by  Wim van der Kuil - Leuven-Template.eu

You find our weather info also at:

European Weather Network

Weather Underground

Equipment we use:

Weather-station
Davis Vue

Weather-program
Meteobridge

Weather-server
Raspberry PI 2 B+

Provider
1 and 1

Davis Vue

Meteobridge

Raspberry PI 2 B+

1 and 1